Airfield :
LOGIN :

Register | Disclaimer

   EN    FR    IT 

 










Legend :    VFR   Marginal VFR   IFR   Intensive IFR   Very Intensive IFR
Visi :
Ceiling :
>= 8 km
>= 3000ft
5 to 8 km
1000 to 3000 ft
1500m to 5 km
500 to 1000 ft
800 to 1500m
200 to 500 ft
< 800m
< 200 ft
Symbols :   Thunderstorms  Fog  Heavy snow  Heavy precipitations  Wind > 20 kt
SIGMETs :     Misc.  Thunderstorms  Icing  Turbulence  Mountain Waves  Volcanic Ashes






- Airport Elevation : 390 ft
- IATA code : NQY


EGHQ - Newquay

CURRENT METAR :
  • 271850Z 23013KT 9999 SCT018 BKN032 07/04 Q0993

EXPIRED METARs :
  • 271820Z 20008KT 9999 -SHRA SCT028 06/04 Q0993
  • 271750Z 19009KT 9999 -SHRA SCT022 SCT040 05/04 Q0994
  • 271720Z 21010KT 9999 VCSH SCT023 05/03 Q0994
  • 271650Z 20009KT 9999 FEW025CB 06/03 Q0994
  • 271620Z 22015G25KT 9999 VCSH FEW012 SCT025CB 06/04 Q0994

TAF TAF EGHQ
Valid from the 27 at 18:00 until the 28 at 03:00 UTC


271702Z 2718/2803 21012KT 9999 SCT018
TEMPO 2718/2721 24015G28KT 6000 SHRA BKN009 BKN018CB
PROB30
TEMPO 2718/2803 3000 +TSRAGS
BECMG 2721/2724 27017KT
TEMPO 2721/2803 28022G35KT 6000 SHRA BKN009 BKN018CB



MET'MAP, your aeronautical weather chart ! - Copyright ORBIFLY December 2007 - Disclaimer

ORBIFLY MET'MAP TEAM :

Programming & Development : Alexandra Zaïnal
Concept & original design : Baudouin d'Aumeries
Assistance for programming : Marc-Olivier Méhu
Technical & hardware support : Manuel Goepfert

Contact : metmap@orbifly.com




SOURCES & CREDITS :

   NOAA